createdAt,value
2022-11-27T00:01:35.146Z,4.55
2022-11-27T00:04:02.211Z,4.48
2022-11-27T00:06:30.286Z,4.43
2022-11-27T00:08:58.715Z,3.81
2022-11-27T00:11:27.326Z,4.04
2022-11-27T00:13:54.363Z,4.30
2022-11-27T00:16:22.236Z,4.34
2022-11-27T00:18:49.617Z,4.30
2022-11-27T00:21:25.011Z,4.31
2022-11-27T00:23:53.478Z,3.96
2022-11-27T00:26:20.844Z,4.17
2022-11-27T00:28:47.874Z,4.22
2022-11-27T00:31:28.653Z,4.18
2022-11-27T00:33:56.866Z,4.15
2022-11-27T00:36:24.317Z,4.11
2022-11-27T00:38:52.039Z,4.15
2022-11-27T00:41:21.911Z,4.16
2022-11-27T00:43:49.185Z,4.15
2022-11-27T00:46:28.051Z,3.96
2022-11-27T00:48:56.140Z,3.90
2022-11-27T00:51:23.795Z,3.99
2022-11-27T00:53:51.273Z,3.82
2022-11-27T00:56:21.039Z,3.94
2022-11-27T00:58:48.180Z,3.84
2022-11-27T01:01:24.951Z,3.93
2022-11-27T01:03:51.842Z,3.98
2022-11-27T01:06:20.193Z,4.01
2022-11-27T01:08:47.703Z,4.07
2022-11-27T01:11:16.940Z,3.96
2022-11-27T01:13:44.073Z,3.97
2022-11-27T01:16:17.312Z,4.03
2022-11-27T01:18:45.979Z,4.02
2022-11-27T01:21:14.563Z,4.03
2022-11-27T01:23:41.340Z,3.94
2022-11-27T01:26:10.432Z,3.98
2022-11-27T01:28:39.748Z,3.93
2022-11-27T01:31:09.487Z,3.90
2022-11-27T01:33:36.121Z,3.90
2022-11-27T01:36:05.372Z,3.94
2022-11-27T01:38:32.922Z,3.82
2022-11-27T01:41:15.236Z,3.89
2022-11-27T01:43:49.790Z,3.63
2022-11-27T01:46:48.979Z,3.60
2022-11-27T01:49:37.182Z,3.71
2022-11-27T01:52:27.738Z,3.83
2022-11-27T01:55:06.936Z,3.51
2022-11-27T01:57:48.191Z,3.32
2022-11-27T02:00:17.034Z,3.62
2022-11-27T02:02:45.006Z,3.56
2022-11-27T02:05:17.334Z,3.63
2022-11-27T02:07:44.812Z,3.70
2022-11-27T02:10:11.765Z,3.63
2022-11-27T02:12:46.261Z,3.48
2022-11-27T02:15:34.775Z,3.60
2022-11-27T02:18:25.110Z,3.57
2022-11-27T02:21:19.050Z,3.53
2022-11-27T02:23:57.039Z,3.48
2022-11-27T02:26:41.978Z,3.28
2022-11-27T02:29:13.707Z,3.30
2022-11-27T02:32:18.895Z,3.32
2022-11-27T02:34:45.396Z,3.35
2022-11-27T02:37:36.965Z,3.33
2022-11-27T02:40:11.938Z,3.32
2022-11-27T02:43:10.794Z,2.93
2022-11-27T02:45:47.522Z,3.08
2022-11-27T02:48:18.744Z,2.91
2022-11-27T02:50:46.501Z,3.19
2022-11-27T02:53:19.365Z,3.25
2022-11-27T02:55:48.797Z,3.07
2022-11-27T02:58:19.480Z,3.17
2022-11-27T03:00:47.800Z,3.09
2022-11-27T03:03:18.667Z,2.96
2022-11-27T03:05:49.600Z,2.92
2022-11-27T03:08:36.622Z,2.98
2022-11-27T03:11:05.462Z,2.98
2022-11-27T03:13:41.173Z,2.97
2022-11-27T03:16:26.801Z,2.99
2022-11-27T03:18:59.050Z,2.99
2022-11-27T03:21:34.460Z,2.94
2022-11-27T03:24:01.392Z,2.83
2022-11-27T03:26:28.214Z,2.74
2022-11-27T03:28:56.988Z,2.76
2022-11-27T03:31:24.142Z,2.88
2022-11-27T03:33:51.172Z,2.84
2022-11-27T03:36:19.809Z,2.65
2022-11-27T03:38:48.140Z,2.74
2022-11-27T03:41:17.555Z,2.75
2022-11-27T03:44:06.076Z,2.61
2022-11-27T03:46:49.248Z,2.52
2022-11-27T03:49:42.988Z,2.57
2022-11-27T03:52:34.295Z,2.56
2022-11-27T03:55:06.960Z,2.54
2022-11-27T03:57:59.410Z,2.46
2022-11-27T04:00:30.453Z,2.53
2022-11-27T04:02:57.065Z,2.52
2022-11-27T04:05:23.723Z,2.46
2022-11-27T04:07:50.451Z,2.42
2022-11-27T04:10:17.138Z,2.39
2022-11-27T04:12:43.776Z,2.39
2022-11-27T04:15:10.889Z,2.40
2022-11-27T04:17:37.504Z,2.25
2022-11-27T04:20:04.999Z,2.31
2022-11-27T04:22:31.620Z,2.35
2022-11-27T04:24:58.170Z,2.27
2022-11-27T04:27:24.738Z,2.25
2022-11-27T04:29:51.314Z,2.27
2022-11-27T04:32:17.951Z,2.30
2022-11-27T04:34:44.568Z,2.38
2022-11-27T04:37:11.185Z,2.16
2022-11-27T04:39:37.767Z,2.17
2022-11-27T04:42:04.475Z,2.27
2022-11-27T04:44:31.026Z,2.07
2022-11-27T04:46:57.702Z,1.95
2022-11-27T04:49:24.397Z,1.97
2022-11-27T04:51:51.002Z,2.07
2022-11-27T04:54:17.873Z,2.05
2022-11-27T04:56:44.486Z,2.08
2022-11-27T04:59:11.035Z,1.97
2022-11-27T05:01:37.635Z,1.39
2022-11-27T05:04:04.422Z,1.60
2022-11-27T05:06:31.036Z,1.85
2022-11-27T05:09:01.854Z,1.99
2022-11-27T05:11:30.091Z,2.13
2022-11-27T05:14:15.197Z,2.18
2022-11-27T05:16:42.959Z,2.13
2022-11-27T05:19:10.767Z,1.95
2022-11-27T05:21:38.288Z,2.08
2022-11-27T05:24:05.318Z,2.09
2022-11-27T05:26:32.352Z,2.12
2022-11-27T05:29:00.184Z,2.06
2022-11-27T05:31:27.640Z,2.15
2022-11-27T05:33:54.519Z,2.11
2022-11-27T05:36:21.123Z,2.16
2022-11-27T05:38:47.712Z,2.17
2022-11-27T05:41:14.357Z,2.15
2022-11-27T05:43:41.935Z,2.19
2022-11-27T05:46:14.600Z,2.15
2022-11-27T05:48:41.542Z,2.11
2022-11-27T05:51:08.552Z,2.14
2022-11-27T05:53:35.474Z,2.08
2022-11-27T05:56:08.381Z,1.96
2022-11-27T05:58:35.831Z,1.84
2022-11-27T06:01:02.805Z,1.74
2022-11-27T06:03:29.517Z,1.98
2022-11-27T06:05:56.341Z,1.72
2022-11-27T06:08:23.234Z,2.00
2022-11-27T06:10:50.413Z,2.08
2022-11-27T06:13:16.990Z,1.97
2022-11-27T06:15:43.616Z,1.96
2022-11-27T06:18:12.292Z,1.84
2022-11-27T06:20:43.746Z,1.72
2022-11-27T06:23:11.286Z,1.76
2022-11-27T06:25:37.875Z,1.75
2022-11-27T06:28:04.503Z,1.73
2022-11-27T06:30:31.299Z,1.80
2022-11-27T06:32:57.883Z,1.69
2022-11-27T06:35:26.609Z,1.64
2022-11-27T06:37:53.208Z,1.80
2022-11-27T06:40:19.836Z,1.73
2022-11-27T06:42:46.394Z,1.82
2022-11-27T06:45:13.993Z,1.86
2022-11-27T06:47:40.593Z,2.15
2022-11-27T06:50:07.495Z,2.22
2022-11-27T06:52:38.828Z,2.20
2022-11-27T06:55:08.146Z,2.13
2022-11-27T06:57:34.824Z,2.18
2022-11-27T07:00:01.451Z,2.18
2022-11-27T07:02:28.437Z,2.23
2022-11-27T07:04:55.050Z,2.34
2022-11-27T07:07:21.780Z,2.30
2022-11-27T07:09:48.467Z,2.25
2022-11-27T07:12:15.059Z,2.27
2022-11-27T07:14:42.547Z,2.24
2022-11-27T07:17:09.319Z,2.26
2022-11-27T07:19:35.926Z,2.23
2022-11-27T07:22:02.958Z,2.33
2022-11-27T07:24:29.636Z,2.29
2022-11-27T07:26:56.228Z,2.37
2022-11-27T07:29:22.937Z,2.33
2022-11-27T07:31:51.421Z,2.30
2022-11-27T07:34:21.605Z,2.30
2022-11-27T07:36:48.495Z,2.33
2022-11-27T07:39:25.231Z,2.48
2022-11-27T07:41:57.210Z,2.49
2022-11-27T07:44:26.708Z,2.50
2022-11-27T07:46:53.288Z,2.53
2022-11-27T07:49:20.210Z,2.51
2022-11-27T07:51:46.821Z,2.60
2022-11-27T07:54:13.475Z,2.60
2022-11-27T07:56:40.200Z,2.68
2022-11-27T07:59:06.776Z,2.72
2022-11-27T08:01:33.443Z,2.69
2022-11-27T08:04:00.088Z,2.55
2022-11-27T08:06:27.656Z,2.48
2022-11-27T08:08:56.675Z,2.51
2022-11-27T08:11:31.417Z,2.63
2022-11-27T08:13:59.910Z,2.75
2022-11-27T08:16:27.771Z,2.78
2022-11-27T08:18:54.556Z,2.72
2022-11-27T08:21:21.209Z,2.77
2022-11-27T08:23:47.857Z,2.75
2022-11-27T08:26:15.170Z,2.54
2022-11-27T08:28:42.434Z,2.63
2022-11-27T08:31:11.792Z,2.77
2022-11-27T08:33:38.503Z,2.53
2022-11-27T08:36:07.319Z,2.82
2022-11-27T08:38:35.640Z,2.78
2022-11-27T08:41:04.361Z,2.97
2022-11-27T08:43:31.785Z,2.75
2022-11-27T08:45:58.854Z,2.90
2022-11-27T08:48:26.208Z,2.95
2022-11-27T08:50:53.205Z,2.89
2022-11-27T08:53:20.332Z,2.80
2022-11-27T08:55:47.158Z,2.72
2022-11-27T08:58:14.313Z,2.75
2022-11-27T09:00:41.424Z,2.68
2022-11-27T09:03:08.130Z,2.56
2022-11-27T09:05:34.775Z,2.84
2022-11-27T09:08:05.372Z,2.90
2022-11-27T09:10:32.411Z,3.06
2022-11-27T09:12:59.611Z,3.09
2022-11-27T09:15:26.239Z,3.11
2022-11-27T09:17:52.870Z,3.15
2022-11-27T09:20:20.193Z,3.05
2022-11-27T09:22:46.967Z,3.11
2022-11-27T09:25:13.652Z,2.94
2022-11-27T09:27:40.285Z,2.87
2022-11-27T09:30:08.650Z,2.80
2022-11-27T09:32:35.567Z,2.56
2022-11-27T09:35:02.449Z,2.47
2022-11-27T09:37:29.234Z,2.60
2022-11-27T09:39:55.879Z,2.55
2022-11-27T09:43:05.245Z,2.70
2022-11-27T09:45:32.614Z,2.60
2022-11-27T09:48:09.040Z,2.63
2022-11-27T09:50:39.373Z,2.93
2022-11-27T09:53:20.281Z,3.05
2022-11-27T09:55:49.987Z,3.28
2022-11-27T09:58:22.263Z,3.36
2022-11-27T10:00:48.855Z,3.24
2022-11-27T10:03:20.199Z,3.22
2022-11-27T10:05:58.019Z,3.39
2022-11-27T10:08:47.928Z,3.45
2022-11-27T10:11:36.203Z,3.47
2022-11-27T10:14:22.959Z,3.64
2022-11-27T10:17:17.043Z,3.91
2022-11-27T10:19:58.776Z,4.00
2022-11-27T10:22:30.558Z,4.01
2022-11-27T10:25:02.188Z,3.90
2022-11-27T10:27:36.526Z,4.17
2022-11-27T10:30:13.200Z,4.43
2022-11-27T10:32:55.175Z,4.40
2022-11-27T10:35:32.533Z,4.12
2022-11-27T10:38:21.232Z,4.40
2022-11-27T10:41:06.461Z,4.66
2022-11-27T10:43:35.384Z,4.37
2022-11-27T10:46:14.165Z,4.26
2022-11-27T10:48:41.029Z,4.33
2022-11-27T10:51:17.878Z,4.55
2022-11-27T10:53:47.178Z,4.53
2022-11-27T10:56:15.146Z,4.64
2022-11-27T10:58:59.956Z,4.67
2022-11-27T11:01:29.559Z,4.86
2022-11-27T11:04:24.217Z,4.57
2022-11-27T11:06:53.944Z,4.62
2022-11-27T11:09:32.552Z,4.76
2022-11-27T11:12:21.076Z,4.72
2022-11-27T11:14:55.875Z,4.73
2022-11-27T11:17:26.480Z,4.93
2022-11-27T11:19:53.563Z,4.81
2022-11-27T11:22:21.775Z,4.96
2022-11-27T11:24:51.370Z,5.26
2022-11-27T11:27:36.436Z,5.27
2022-11-27T11:30:05.797Z,5.43
2022-11-27T11:32:37.691Z,5.57
2022-11-27T11:35:28.817Z,5.63
2022-11-27T11:37:57.448Z,5.61
2022-11-27T11:40:27.802Z,5.62
2022-11-27T11:43:02.890Z,5.71
2022-11-27T11:45:33.189Z,5.88
2022-11-27T11:48:02.501Z,5.93
2022-11-27T11:50:44.526Z,5.97
2022-11-27T11:53:29.590Z,5.85
2022-11-27T11:56:28.250Z,6.03
2022-11-27T11:59:00.448Z,5.80
2022-11-27T12:01:43.564Z,5.82
2022-11-27T12:04:31.483Z,6.19
2022-11-27T12:07:22.754Z,6.24
2022-11-27T12:10:05.398Z,5.88
2022-11-27T12:12:52.563Z,5.94
2022-11-27T12:15:54.801Z,6.24
2022-11-27T12:18:40.067Z,6.66
2022-11-27T12:21:43.962Z,6.81
2022-11-27T12:24:19.474Z,6.88
2022-11-27T12:27:12.728Z,6.80
2022-11-27T12:29:52.363Z,6.81
2022-11-27T12:32:43.991Z,6.79
2022-11-27T12:35:19.695Z,6.83
2022-11-27T12:38:04.333Z,6.83
2022-11-27T12:40:46.190Z,6.85
2022-11-27T12:43:26.353Z,6.86
2022-11-27T12:46:15.016Z,6.86
2022-11-27T12:48:58.627Z,6.94
2022-11-27T12:51:38.233Z,7.01
2022-11-27T12:54:23.874Z,7.15
2022-11-27T12:56:57.850Z,7.23
2022-11-27T12:59:34.565Z,7.16
2022-11-27T13:02:04.230Z,7.14
2022-11-27T13:04:52.034Z,6.72
2022-11-27T13:07:31.048Z,6.41
2022-11-27T13:10:11.544Z,6.31
2022-11-27T13:12:46.489Z,6.49
2022-11-27T13:15:34.461Z,6.73
2022-11-27T13:18:11.986Z,6.60
2022-11-27T13:20:41.206Z,6.73
2022-11-27T13:23:07.896Z,6.81
2022-11-27T13:25:40.728Z,6.80
2022-11-27T13:28:14.512Z,6.68
2022-11-27T13:30:41.340Z,6.56
2022-11-27T13:33:27.864Z,6.64
2022-11-27T13:35:54.994Z,6.82
2022-11-27T13:38:26.174Z,7.02
2022-11-27T13:40:55.971Z,7.09
2022-11-27T13:43:28.772Z,7.06
2022-11-27T13:46:07.770Z,7.12
2022-11-27T13:48:38.872Z,6.96
2022-11-27T13:51:08.524Z,6.98
2022-11-27T13:53:38.480Z,7.11
2022-11-27T13:56:06.334Z,7.14
2022-11-27T13:58:34.400Z,7.15
2022-11-27T14:01:22.376Z,7.23
2022-11-27T14:03:49.742Z,7.35
2022-11-27T14:06:26.231Z,7.35
2022-11-27T14:08:59.309Z,7.26
2022-11-27T14:11:34.664Z,7.25
2022-11-27T14:14:12.036Z,7.32
2022-11-27T14:16:42.519Z,7.40
2022-11-27T14:19:33.640Z,7.44
2022-11-27T14:22:02.119Z,7.46
2022-11-27T14:24:46.830Z,7.16
2022-11-27T14:27:21.831Z,7.19
2022-11-27T14:29:49.997Z,7.01
2022-11-27T14:32:18.476Z,7.03
2022-11-27T14:34:46.145Z,7.20
2022-11-27T14:37:27.435Z,7.28
2022-11-27T14:39:54.764Z,7.25
2022-11-27T14:42:28.494Z,7.27
2022-11-27T14:45:05.237Z,7.04
2022-11-27T14:47:32.367Z,7.12
2022-11-27T14:50:00.194Z,7.28
2022-11-27T14:52:27.319Z,7.26
2022-11-27T14:54:55.535Z,7.14
2022-11-27T14:57:27.036Z,7.03
2022-11-27T15:00:14.588Z,7.09
2022-11-27T15:02:41.594Z,7.19
2022-11-27T15:05:18.683Z,7.12
2022-11-27T15:07:50.359Z,7.10
2022-11-27T15:10:24.363Z,7.05
2022-11-27T15:12:51.058Z,6.87
2022-11-27T15:15:24.292Z,6.78
2022-11-27T15:17:55.869Z,6.81
2022-11-27T15:20:27.386Z,6.88
2022-11-27T15:22:56.204Z,6.91
2022-11-27T15:25:40.560Z,6.96
2022-11-27T15:28:26.808Z,6.93
2022-11-27T15:30:54.052Z,6.91
2022-11-27T15:33:34.016Z,6.80
2022-11-27T15:36:17.477Z,6.84
2022-11-27T15:38:45.724Z,6.79
2022-11-27T15:41:27.246Z,6.67
2022-11-27T15:43:55.591Z,6.71
2022-11-27T15:46:30.235Z,6.68
2022-11-27T15:48:56.904Z,6.61
2022-11-27T15:51:23.669Z,6.55
2022-11-27T15:53:50.513Z,6.53
2022-11-27T15:56:17.596Z,6.56
2022-11-27T15:58:44.478Z,6.59
2022-11-27T16:01:11.496Z,6.40
2022-11-27T16:03:39.891Z,6.38
2022-11-27T16:06:08.475Z,6.44
2022-11-27T16:08:35.281Z,6.48
2022-11-27T16:11:05.754Z,6.40
2022-11-27T16:13:32.321Z,6.37
2022-11-27T16:16:08.047Z,6.36
2022-11-27T16:18:35.355Z,6.29
2022-11-27T16:21:06.637Z,6.11
2022-11-27T16:23:36.026Z,5.88
2022-11-27T16:26:02.834Z,5.96
2022-11-27T16:28:30.470Z,5.92
2022-11-27T16:31:00.593Z,5.82
2022-11-27T16:33:28.237Z,6.15
2022-11-27T16:35:55.345Z,6.36
2022-11-27T16:38:23.138Z,6.23
2022-11-27T16:40:50.373Z,6.23
2022-11-27T16:43:17.744Z,6.14
2022-11-27T16:45:44.408Z,5.94
2022-11-27T16:48:11.109Z,5.76
2022-11-27T16:50:37.691Z,5.83
2022-11-27T16:53:04.303Z,5.84
2022-11-27T16:55:33.196Z,6.15
2022-11-27T16:57:59.894Z,6.32
2022-11-27T17:00:28.463Z,6.29
2022-11-27T17:02:55.027Z,6.17
2022-11-27T17:05:21.667Z,5.99
2022-11-27T17:07:48.290Z,6.10
2022-11-27T17:10:14.950Z,6.16
2022-11-27T17:12:41.539Z,6.18
2022-11-27T17:15:08.652Z,6.24
2022-11-27T17:17:39.979Z,6.12
2022-11-27T17:20:07.894Z,6.07
2022-11-27T17:22:34.731Z,6.21
2022-11-27T17:25:01.463Z,6.16
2022-11-27T17:27:29.271Z,6.19
2022-11-27T17:29:55.943Z,5.98
2022-11-27T17:32:24.690Z,5.83
2022-11-27T17:34:52.199Z,6.20
2022-11-27T17:37:20.205Z,6.11
2022-11-27T17:39:47.818Z,6.01
2022-11-27T17:42:18.171Z,5.93
2022-11-27T17:44:47.948Z,5.66
2022-11-27T17:47:14.596Z,5.80
2022-11-27T17:49:41.974Z,5.72
2022-11-27T17:52:08.902Z,5.93
2022-11-27T17:54:37.229Z,5.93
2022-11-27T17:57:05.303Z,5.86
2022-11-27T17:59:31.941Z,5.98
2022-11-27T18:01:58.883Z,5.85
2022-11-27T18:04:25.906Z,5.64
2022-11-27T18:06:52.954Z,5.80
2022-11-27T18:09:22.921Z,5.55
2022-11-27T18:11:49.879Z,5.75
2022-11-27T18:14:17.539Z,5.64
2022-11-27T18:16:44.252Z,5.88
2022-11-27T18:19:11.335Z,5.78
2022-11-27T18:21:38.540Z,5.68
2022-11-27T18:24:23.399Z,5.65
2022-11-27T18:29:39.705Z,5.58
2022-11-27T18:32:07.129Z,5.27
2022-11-27T18:34:34.034Z,5.49
2022-11-27T18:37:00.872Z,5.76
2022-11-27T18:39:31.570Z,5.80
2022-11-27T18:41:58.198Z,5.89
2022-11-27T18:44:24.834Z,5.67
2022-11-27T18:46:51.675Z,5.62
2022-11-27T18:49:18.370Z,5.85
2022-11-27T18:51:46.118Z,5.62
2022-11-27T18:54:12.772Z,5.75
2022-11-27T18:56:40.085Z,5.80
2022-11-27T18:59:08.900Z,5.88
2022-11-27T19:01:42.037Z,5.89
2022-11-27T19:04:10.604Z,5.79
2022-11-27T19:06:38.630Z,5.86
2022-11-27T19:09:06.210Z,5.95
2022-11-27T19:11:33.948Z,5.88
2022-11-27T19:14:02.027Z,5.93
2022-11-27T19:16:41.694Z,5.91
2022-11-27T19:19:16.816Z,5.75
2022-11-27T19:21:55.557Z,5.63
2022-11-27T19:24:22.490Z,5.67
2022-11-27T19:26:53.468Z,5.80
2022-11-27T19:29:20.161Z,5.77
2022-11-27T19:31:47.424Z,5.79
2022-11-27T19:34:14.588Z,5.88
2022-11-27T19:36:41.360Z,5.94
2022-11-27T19:39:13.984Z,5.87
2022-11-27T19:41:41.559Z,5.91
2022-11-27T19:44:08.135Z,5.80
2022-11-27T19:46:37.196Z,6.00
2022-11-27T19:49:07.212Z,5.93
2022-11-27T19:51:36.720Z,5.73
2022-11-27T19:54:09.966Z,5.82
2022-11-27T19:56:39.989Z,5.95
2022-11-27T19:59:07.209Z,5.92
2022-11-27T20:01:33.988Z,6.02
2022-11-27T20:04:01.976Z,5.83
2022-11-27T20:06:28.571Z,5.71
2022-11-27T20:09:00.689Z,5.88
2022-11-27T20:11:34.168Z,5.91
2022-11-27T20:14:04.045Z,5.80
2022-11-27T20:16:33.249Z,5.72
2022-11-27T20:19:02.269Z,5.73
2022-11-27T20:21:28.875Z,5.85
2022-11-27T20:23:57.579Z,5.86
2022-11-27T20:26:26.375Z,5.80
2022-11-27T20:28:53.977Z,5.79
2022-11-27T20:31:25.122Z,5.56
2022-11-27T20:33:55.385Z,5.75
2022-11-27T20:36:23.391Z,5.85
2022-11-27T20:38:50.948Z,5.81
2022-11-27T20:41:19.303Z,5.76
2022-11-27T20:43:46.315Z,5.88
2022-11-27T20:46:13.981Z,5.68
2022-11-27T20:48:40.912Z,5.60
2022-11-27T20:51:09.286Z,5.75
2022-11-27T20:53:36.846Z,5.66
2022-11-27T20:56:04.675Z,5.68
2022-11-27T20:58:31.953Z,5.58
2022-11-27T21:01:00.007Z,5.80
2022-11-27T21:03:28.263Z,5.88
2022-11-27T21:05:55.486Z,5.56
2022-11-27T21:08:22.998Z,5.40
2022-11-27T21:10:50.421Z,5.65
2022-11-27T21:13:17.450Z,5.65
2022-11-27T21:15:48.002Z,5.73
2022-11-27T21:18:15.208Z,5.72
2022-11-27T21:20:42.792Z,5.68
2022-11-27T21:23:09.605Z,5.35
2022-11-27T21:25:38.023Z,5.44
2022-11-27T21:28:04.810Z,5.65
2022-11-27T21:30:31.420Z,5.33
2022-11-27T21:32:58.253Z,5.38
2022-11-27T21:35:30.069Z,5.75
2022-11-27T21:37:58.261Z,5.67
2022-11-27T21:40:24.894Z,5.48
2022-11-27T21:42:52.822Z,5.28
2022-11-27T21:45:19.391Z,5.10
2022-11-27T21:47:46.431Z,5.37
2022-11-27T21:50:13.863Z,5.55
2022-11-27T21:52:40.515Z,5.42
2022-11-27T21:55:11.876Z,5.44
2022-11-27T21:57:39.183Z,5.64
2022-11-27T22:00:06.606Z,5.43
2022-11-27T22:02:38.701Z,5.50
2022-11-27T22:05:05.820Z,5.58
2022-11-27T22:07:32.407Z,5.37
2022-11-27T22:09:59.070Z,5.70
2022-11-27T22:12:25.642Z,5.72
2022-11-27T22:14:52.264Z,5.44
2022-11-27T22:17:19.178Z,5.44
2022-11-27T22:19:45.997Z,5.55
2022-11-27T22:22:13.195Z,5.53
2022-11-27T22:24:40.157Z,5.17
2022-11-27T22:27:07.621Z,4.95
2022-11-27T22:29:34.646Z,4.92
2022-11-27T22:32:01.261Z,4.97
2022-11-27T22:34:27.822Z,5.40
2022-11-27T22:36:55.950Z,5.69
2022-11-27T22:39:22.775Z,5.65
2022-11-27T22:41:49.579Z,5.58
2022-11-27T22:44:19.027Z,5.59
2022-11-27T22:46:46.571Z,5.56
2022-11-27T22:49:15.810Z,5.55
2022-11-27T22:51:43.484Z,5.11
2022-11-27T22:54:16.855Z,5.39
2022-11-27T22:56:45.704Z,5.34
2022-11-27T23:02:00.557Z,5.22
2022-11-27T23:04:27.476Z,5.09
2022-11-27T23:06:54.126Z,5.42
2022-11-27T23:09:21.072Z,5.48
2022-11-27T23:11:47.756Z,5.67
2022-11-27T23:14:14.404Z,5.65
2022-11-27T23:16:41.129Z,5.80
2022-11-27T23:19:08.523Z,5.71
2022-11-27T23:21:37.495Z,5.77
2022-11-27T23:24:05.918Z,5.83
2022-11-27T23:26:32.952Z,5.83
2022-11-27T23:28:59.544Z,5.77
2022-11-27T23:31:30.899Z,5.77
2022-11-27T23:34:01.230Z,5.83
2022-11-27T23:36:28.992Z,5.72
2022-11-27T23:38:55.613Z,5.74
2022-11-27T23:41:25.376Z,5.70
2022-11-27T23:43:53.558Z,5.64
2022-11-27T23:46:22.699Z,5.58
2022-11-27T23:48:49.473Z,5.62
2022-11-27T23:51:19.361Z,5.76
2022-11-27T23:53:46.832Z,5.82
2022-11-27T23:56:19.488Z,5.77
2022-11-27T23:58:47.526Z,5.42
